Augusta, New York
Current Conditions -  °F | °C
As of 11:41 PM on Saturday 25 Oct 2014 (Local Time) from KRME Reporting Station
Thunderstorm Thunderstorm  
Wind Chill: 45°   Ceiling: 5500
Heat Index: 48°   Visibility: 3mi
Dew Point: 47°   Wind: 7mph
Humidity: 96%   Direction: 350°N
Pressure: 29.55"   Gusts: NA
Location:  42.9771°N, 75.5023°W
Report Text: KRME 260341Z AUTO 35006KT 3SM -TSRA BR FEW031 BKN055 BKN090 09/08 A2955 RMK AO2 LTG DSNT NE AND SW AND W RAB08E17B40 TSB35 P0002 T00890083
Loading
Personal Weather Stations






























Interactive Weather Map New forecast layout! Learn more

10-Day Weather Forecast

Advertisements
Track Severe Weather on mobile